Tropical Cyclones
[Index]
Main Index Home Page Stock Weather Photos Extreme Storms Discussion Storm News and Storm Chasing Reports Tropical Cyclones / Hurricanes / Typhoons Weather Data and Links Wild Fires / Bushfires Weather Observation Techniques Weather Picture Catalogue Tornado Pictures and Reports Stock Video Footage and DVDs for sale
Season 2005-2006 Tropical Cyclone JIM Track Map
Season 2005-2006 Summaries: [BoM-AU] [JTWC-AU] [JTWC-SIO] [JTWC-SPAC] [JTWC-SH]
<<- Previous TC | JTWC 2005-2006 Season | Next TC ->>

click for intensity scale information  Lat/long Grid: Show Hide

 Date Labels: Show Hide

Joint Typhoon Warning Centre Cyclone Data

Name: JIM

27 Jan 2006 00:00 UTC to 02 Feb 2006 18:00 UTC

    date/time    lat    long     hPa   cat  kts
2006-01-27 00   18.0   147.4    1006         15          
2006-01-27 06   17.9   148.0    1004         20          
2006-01-27 12   17.8   148.6    1000         25          
2006-01-27 18   17.6   149.2     997         25          
2006-01-28 00   17.3   150.0    1000         30          
2006-01-28 06   17.0   151.1     993    1    40          
2006-01-28 12   16.3   152.2     993    1    40          
2006-01-28 18   16.6   153.6     989    1    45          
2006-01-29 00   16.3   154.6     985    1    50          
2006-01-29 00   16.3   154.6     985    1    50          
2006-01-29 06   16.1   155.7     982    2    55          
2006-01-29 06   16.1   155.7     982    2    55          
2006-01-29 12   16.0   156.9     982    2    55          
2006-01-29 12   16.0   156.9     982    2    55          
2006-01-29 18   16.1   158.5     974    2    65          
2006-01-29 18   16.1   158.5     974    2    65          
2006-01-29 18   16.1   158.5     974    2    65          
2006-01-30 00   16.8   160.2     974    2    65          
2006-01-30 00   16.8   160.2     974    2    65          
2006-01-30 00   16.8   160.2     974    2    65          
2006-01-30 06   17.5   161.7     974    2    65          
2006-01-30 06   17.5   161.7     974    2    65          
2006-01-30 06   17.5   161.7     974    2    65          
2006-01-30 12   18.1   163.5     970    2    70          
2006-01-30 12   18.1   163.5     970    2    70          
2006-01-30 12   18.1   163.5     970    2    70          
2006-01-30 18   19.0   165.6     963    3    80          
2006-01-30 18   19.0   165.6     963    3    80          
2006-01-30 18   19.0   165.6     963    3    80          
2006-01-31 00   20.4   167.2     967    3    75          
2006-01-31 00   20.4   167.2     967    3    75          
2006-01-31 00   20.4   167.2     967    3    75          
2006-01-31 06   21.7   168.9     976    2    65          
2006-01-31 06   21.7   168.9     976    2    65          
2006-01-31 12   23.0   170.6     980    2    60          
2006-01-31 12   23.0   170.6     980    2    60          
2006-01-31 18   24.3   172.3     987    1    50          
2006-02-01 00   26.3   173.7     991    1    45          
2006-02-01 06   29.0   174.6     997         35          
2006-02-01 12   30.8   174.9     997         35          
2006-02-01 18   31.3   174.3    1000         30          
2006-02-02 00   31.0   173.8    1000         30          
2006-02-02 06   30.7   173.3    1002         25          
2006-02-02 12   29.6   173.0    1004         20          
2006-02-02 18   28.8   172.5    1004         20          
Winds are 1-min average.

Tropical cyclone tracks developed by Michael Bath using data from the Joint Typhoon Warning Centre Best Tracks and Google Maps.


[Australian Severe Weather index] [Copyright Notice] [Email Contacts] [Search This Site] [Privacy Policy]
Document: tropical_cyclone_jim.htm Updated: 28 June 2017